createdAt,value
2018-06-24T00:00:49.287Z,0.00
2018-06-24T00:01:49.264Z,0.00
2018-06-24T00:02:49.294Z,0.00
2018-06-24T00:03:49.287Z,0.00
2018-06-24T00:04:49.231Z,0.00
2018-06-24T00:05:49.278Z,0.00
2018-06-24T00:06:49.198Z,0.00
2018-06-24T00:07:49.188Z,0.00
2018-06-24T00:08:49.215Z,0.00
2018-06-24T00:09:49.174Z,0.00
2018-06-24T00:10:49.171Z,0.00
2018-06-24T00:11:49.148Z,0.00
2018-06-24T00:12:49.163Z,0.00
2018-06-24T00:13:49.182Z,0.00
2018-06-24T00:14:49.119Z,0.00
2018-06-24T00:15:49.102Z,0.00
2018-06-24T00:16:49.090Z,0.00
2018-06-24T00:17:49.086Z,0.00
2018-06-24T00:18:49.064Z,0.00
2018-06-24T00:19:49.060Z,0.00
2018-06-24T00:20:49.028Z,0.00
2018-06-24T00:21:49.029Z,0.00
2018-06-24T00:22:49.008Z,0.00
2018-06-24T00:23:49.009Z,0.00
2018-06-24T00:24:49.022Z,0.00
2018-06-24T00:25:48.983Z,0.00
2018-06-24T00:26:48.970Z,0.00
2018-06-24T00:27:48.956Z,0.00
2018-06-24T00:28:48.941Z,0.00
2018-06-24T00:29:48.934Z,0.00
2018-06-24T00:30:48.950Z,0.00
2018-06-24T00:31:48.902Z,0.00
2018-06-24T00:32:48.879Z,0.00
2018-06-24T00:33:48.885Z,0.00
2018-06-24T00:34:48.904Z,0.00
2018-06-24T00:35:49.035Z,0.00
2018-06-24T00:36:48.914Z,0.00
2018-06-24T00:37:48.842Z,0.00
2018-06-24T00:38:48.818Z,0.00
2018-06-24T00:39:48.813Z,0.00
2018-06-24T00:40:48.786Z,0.00
2018-06-24T00:41:48.809Z,0.00
2018-06-24T00:42:48.771Z,0.00
2018-06-24T00:43:48.757Z,0.00
2018-06-24T00:44:48.744Z,0.00
2018-06-24T00:45:48.750Z,0.00
2018-06-24T00:46:48.710Z,0.00
2018-06-24T00:47:48.716Z,0.00
2018-06-24T00:48:48.687Z,0.00
2018-06-24T00:49:48.678Z,0.00
2018-06-24T00:50:48.685Z,0.00
2018-06-24T00:51:48.676Z,0.00
2018-06-24T00:52:48.631Z,0.00
2018-06-24T00:53:48.760Z,0.00
2018-06-24T00:54:48.616Z,0.00
2018-06-24T00:55:48.610Z,0.00
2018-06-24T00:56:48.589Z,0.00
2018-06-24T00:57:48.593Z,0.00
2018-06-24T00:58:48.564Z,0.00
2018-06-24T00:59:48.559Z,0.00
2018-06-24T01:00:48.531Z,0.00
2018-06-24T01:01:48.525Z,0.00
2018-06-24T01:02:48.553Z,0.00
2018-06-24T01:03:48.505Z,0.00
2018-06-24T01:04:48.489Z,0.00
2018-06-24T01:05:48.477Z,0.00
2018-06-24T01:06:48.462Z,0.00
2018-06-24T01:07:48.455Z,0.00
2018-06-24T01:08:48.438Z,0.00
2018-06-24T01:09:48.432Z,0.00
2018-06-24T01:10:48.414Z,0.00
2018-06-24T01:11:48.430Z,0.00
2018-06-24T01:12:48.385Z,0.00
2018-06-24T01:13:48.410Z,0.00
2018-06-24T01:14:48.365Z,0.00
2018-06-24T01:15:48.346Z,0.00
2018-06-24T01:16:48.342Z,0.00
2018-06-24T01:17:48.323Z,0.00
2018-06-24T01:18:48.395Z,0.00
2018-06-24T01:19:48.306Z,0.00
2018-06-24T01:20:48.280Z,0.00
2018-06-24T01:21:48.263Z,0.00
2018-06-24T01:22:48.258Z,0.00
2018-06-24T01:23:48.237Z,0.00
2018-06-24T01:24:48.231Z,0.00
2018-06-24T01:25:48.215Z,0.00
2018-06-24T01:26:48.206Z,0.00
2018-06-24T01:27:48.187Z,0.00
2018-06-24T01:28:48.192Z,0.00
2018-06-24T01:29:48.234Z,0.00
2018-06-24T01:30:48.158Z,0.00
2018-06-24T01:31:48.146Z,0.00
2018-06-24T01:32:48.140Z,0.00
2018-06-24T01:33:48.119Z,0.00
2018-06-24T01:34:48.104Z,0.00
2018-06-24T01:35:48.119Z,0.00
2018-06-24T01:36:48.070Z,0.00
2018-06-24T01:37:48.054Z,0.00
2018-06-24T01:38:48.042Z,0.00
2018-06-24T01:39:48.044Z,0.00
2018-06-24T01:40:48.056Z,0.00
2018-06-24T01:41:48.012Z,0.00
2018-06-24T01:42:48.006Z,0.00
2018-06-24T01:43:47.998Z,0.00
2018-06-24T01:44:48.010Z,0.00
2018-06-24T01:45:47.950Z,0.00
2018-06-24T01:46:47.960Z,0.00
2018-06-24T01:47:47.939Z,0.00
2018-06-24T01:48:47.920Z,0.00
2018-06-24T01:49:47.906Z,0.00
2018-06-24T01:50:47.896Z,0.00
2018-06-24T01:51:47.951Z,0.00
2018-06-24T01:52:47.880Z,0.00
2018-06-24T01:53:47.861Z,0.00
2018-06-24T01:54:47.847Z,0.00
2018-06-24T01:55:47.832Z,0.00
2018-06-24T01:56:47.817Z,0.00
2018-06-24T01:57:47.839Z,0.00
2018-06-24T01:58:47.793Z,0.00
2018-06-24T01:59:47.771Z,0.00
2018-06-24T02:00:47.772Z,0.00
2018-06-24T02:01:47.750Z,0.00
2018-06-24T02:02:47.763Z,0.00
2018-06-24T02:03:47.730Z,0.00
2018-06-24T02:04:47.718Z,0.00
2018-06-24T02:05:47.700Z,0.00
2018-06-24T02:06:47.846Z,0.00
2018-06-24T02:07:47.680Z,0.00
2018-06-24T02:08:47.663Z,0.00
2018-06-24T02:09:47.655Z,0.00
2018-06-24T02:10:47.638Z,0.00
2018-06-24T02:11:47.620Z,0.00
2018-06-24T02:12:47.644Z,0.00
2018-06-24T02:13:47.607Z,0.00
2018-06-24T02:14:47.591Z,0.00
2018-06-24T02:15:47.578Z,0.00
2018-06-24T02:16:47.553Z,0.00
2018-06-24T02:17:47.580Z,0.00
2018-06-24T02:18:47.569Z,0.00
2018-06-24T02:19:47.532Z,0.00
2018-06-24T02:20:47.514Z,0.00
2018-06-24T02:21:47.496Z,0.00
2018-06-24T02:22:47.492Z,0.00
2018-06-24T02:23:47.483Z,0.00
2018-06-24T02:24:47.462Z,0.00
2018-06-24T02:25:47.480Z,0.00
2018-06-24T02:26:47.435Z,0.00
2018-06-24T02:27:47.428Z,0.00
2018-06-24T02:28:47.411Z,0.00
2018-06-24T02:29:47.407Z,0.00
2018-06-24T02:30:47.569Z,0.00
2018-06-24T02:31:47.366Z,0.00
2018-06-24T02:32:47.360Z,0.00
2018-06-24T02:33:47.342Z,0.00
2018-06-24T02:34:47.339Z,0.00
2018-06-24T02:35:47.451Z,0.00
2018-06-24T02:36:47.331Z,0.00
2018-06-24T02:37:47.304Z,0.00
2018-06-24T02:38:47.288Z,0.00
2018-06-24T02:39:47.272Z,0.00
2018-06-24T02:40:47.254Z,0.00
2018-06-24T02:41:47.255Z,0.00
2018-06-24T02:42:47.222Z,0.00
2018-06-24T02:43:47.221Z,0.00
2018-06-24T02:44:47.203Z,0.00
2018-06-24T02:45:47.184Z,0.00
2018-06-24T02:46:47.236Z,0.00
2018-06-24T02:47:47.164Z,0.00
2018-06-24T02:48:47.159Z,0.00
2018-06-24T02:49:47.148Z,0.00
2018-06-24T02:50:47.126Z,0.00
2018-06-24T02:51:47.114Z,0.00
2018-06-24T02:52:47.132Z,0.00
2018-06-24T02:53:47.293Z,0.00
2018-06-24T02:54:47.079Z,0.00
2018-06-24T02:55:47.070Z,0.00
2018-06-24T02:56:47.052Z,0.00
2018-06-24T02:57:47.101Z,0.00
2018-06-24T02:58:47.025Z,0.00
2018-06-24T02:59:47.017Z,0.00
2018-06-24T03:00:47.007Z,0.00
2018-06-24T03:01:46.979Z,0.00
2018-06-24T03:02:46.975Z,0.00
2018-06-24T03:03:46.976Z,0.00
2018-06-24T03:04:46.959Z,0.00
2018-06-24T03:05:46.925Z,0.00
2018-06-24T03:06:46.919Z,0.00
2018-06-24T03:07:46.909Z,0.00
2018-06-24T03:08:46.924Z,0.00
2018-06-24T03:09:47.035Z,0.00
2018-06-24T03:10:46.862Z,0.00
2018-06-24T03:11:46.862Z,0.00
2018-06-24T03:12:46.846Z,0.00
2018-06-24T03:13:46.837Z,0.00
2018-06-24T03:14:46.811Z,0.00
2018-06-24T03:15:46.819Z,0.00
2018-06-24T03:16:46.855Z,0.00
2018-06-24T03:17:46.779Z,0.00
2018-06-24T03:18:46.787Z,0.00
2018-06-24T03:19:46.764Z,0.00
2018-06-24T03:20:46.739Z,0.00
2018-06-24T03:21:46.731Z,0.00
2018-06-24T03:22:46.715Z,0.00
2018-06-24T03:23:46.771Z,0.00
2018-06-24T03:24:46.682Z,0.00
2018-06-24T03:25:46.687Z,0.00
2018-06-24T03:26:46.673Z,0.00
2018-06-24T03:27:46.645Z,0.00
2018-06-24T03:28:46.640Z,0.00
2018-06-24T03:29:46.661Z,0.00
2018-06-24T03:30:46.614Z,0.00
2018-06-24T03:31:46.604Z,0.00
2018-06-24T03:32:46.625Z,0.00
2018-06-24T03:33:46.574Z,0.00
2018-06-24T03:34:46.595Z,0.00
2018-06-24T03:35:46.547Z,0.00
2018-06-24T03:36:46.541Z,0.00
2018-06-24T03:37:46.536Z,0.00
2018-06-24T03:38:46.501Z,0.00
2018-06-24T03:39:46.520Z,0.00
2018-06-24T03:40:46.492Z,0.00
2018-06-24T03:41:46.472Z,5.63
2018-06-24T03:42:46.456Z,5.63
2018-06-24T03:43:46.433Z,5.63
2018-06-24T03:44:46.461Z,5.63
2018-06-24T03:45:46.423Z,5.63
2018-06-24T03:46:46.398Z,5.63
2018-06-24T03:47:46.393Z,5.63
2018-06-24T03:48:46.381Z,5.63
2018-06-24T03:49:46.405Z,5.63
2018-06-24T03:50:46.357Z,5.63
2018-06-24T03:51:46.344Z,5.63
2018-06-24T03:52:46.331Z,5.63
2018-06-24T03:53:46.311Z,5.63
2018-06-24T03:54:46.332Z,5.63
2018-06-24T03:55:46.291Z,5.63
2018-06-24T03:56:46.274Z,5.63
2018-06-24T03:57:46.275Z,5.63
2018-06-24T03:58:46.247Z,11.25
2018-06-24T03:59:46.273Z,11.25
2018-06-24T04:00:46.235Z,11.25
2018-06-24T04:01:46.222Z,11.25
2018-06-24T04:02:46.208Z,11.25
2018-06-24T04:03:46.187Z,11.25
2018-06-24T04:04:46.211Z,11.25
2018-06-24T04:05:46.173Z,11.25
2018-06-24T04:06:46.185Z,11.25
2018-06-24T04:07:46.142Z,11.25
2018-06-24T04:08:46.125Z,11.25
2018-06-24T04:09:46.256Z,11.25
2018-06-24T04:10:46.096Z,11.25
2018-06-24T04:11:46.082Z,11.25
2018-06-24T04:12:46.075Z,11.25
2018-06-24T04:13:46.057Z,11.25
2018-06-24T04:14:46.050Z,11.25
2018-06-24T04:15:46.050Z,11.25
2018-06-24T04:16:46.019Z,11.25
2018-06-24T04:17:46.014Z,11.25
2018-06-24T04:18:45.998Z,16.88
2018-06-24T04:19:46.020Z,16.88
2018-06-24T04:20:45.966Z,16.88
2018-06-24T04:21:45.963Z,16.88
2018-06-24T04:22:45.946Z,16.88
2018-06-24T04:23:45.932Z,16.88
2018-06-24T04:24:46.068Z,16.88
2018-06-24T04:25:45.978Z,16.88
2018-06-24T04:26:45.904Z,16.88
2018-06-24T04:27:45.887Z,16.88
2018-06-24T04:28:45.874Z,16.88
2018-06-24T04:29:45.855Z,16.88
2018-06-24T04:30:45.858Z,16.88
2018-06-24T04:31:45.833Z,16.88
2018-06-24T04:32:45.827Z,16.88
2018-06-24T04:33:45.809Z,16.88
2018-06-24T04:34:45.918Z,16.88
2018-06-24T04:35:45.792Z,16.88
2018-06-24T04:36:45.778Z,16.88
2018-06-24T04:37:45.771Z,16.88
2018-06-24T04:38:45.758Z,16.88
2018-06-24T04:39:45.735Z,16.88
2018-06-24T04:40:45.726Z,16.88
2018-06-24T04:41:45.739Z,16.88
2018-06-24T04:42:45.712Z,22.50
2018-06-24T04:43:45.688Z,22.50
2018-06-24T04:44:45.670Z,16.88
2018-06-24T04:45:45.657Z,16.88
2018-06-24T04:46:45.668Z,22.50
2018-06-24T04:47:45.636Z,22.50
2018-06-24T04:48:45.614Z,22.50
2018-06-24T04:49:45.606Z,28.13
2018-06-24T04:50:45.591Z,28.13
2018-06-24T04:51:45.714Z,33.75
2018-06-24T04:52:45.576Z,33.75
2018-06-24T04:53:45.549Z,33.75
2018-06-24T04:54:45.548Z,33.75
2018-06-24T04:55:45.536Z,39.38
2018-06-24T04:56:45.574Z,39.38
2018-06-24T04:57:45.499Z,39.38
2018-06-24T04:58:45.500Z,39.38
2018-06-24T04:59:45.487Z,39.38
2018-06-24T05:00:45.479Z,39.38
2018-06-24T05:01:45.461Z,39.38
2018-06-24T05:02:45.458Z,33.75
2018-06-24T05:03:45.432Z,33.75
2018-06-24T05:04:45.424Z,33.75
2018-06-24T05:05:45.397Z,28.13
2018-06-24T05:06:45.390Z,28.13
2018-06-24T05:07:45.420Z,28.13
2018-06-24T05:08:45.415Z,28.13
2018-06-24T05:09:45.359Z,28.13
2018-06-24T05:10:45.353Z,33.75
2018-06-24T05:11:45.336Z,33.75
2018-06-24T05:12:45.353Z,33.75
2018-06-24T05:13:45.306Z,33.75
2018-06-24T05:14:45.299Z,33.75
2018-06-24T05:15:45.293Z,33.75
2018-06-24T05:16:45.267Z,33.75
2018-06-24T05:17:45.257Z,39.38
2018-06-24T05:18:45.601Z,39.38
2018-06-24T05:19:45.233Z,39.38
2018-06-24T05:20:45.211Z,45.00
2018-06-24T05:21:45.207Z,45.00
2018-06-24T05:22:45.199Z,50.63
2018-06-24T05:23:45.179Z,50.63
2018-06-24T05:24:45.184Z,56.25
2018-06-24T05:25:45.160Z,56.25
2018-06-24T05:26:45.153Z,61.88
2018-06-24T05:27:45.162Z,61.88
2018-06-24T05:28:45.176Z,56.25
2018-06-24T05:29:45.114Z,56.25
2018-06-24T05:30:45.085Z,56.25
2018-06-24T05:31:45.080Z,56.25
2018-06-24T05:32:45.082Z,56.25
2018-06-24T05:33:45.061Z,50.63
2018-06-24T05:34:45.058Z,56.25
2018-06-24T05:35:45.035Z,56.25
2018-06-24T05:36:45.020Z,50.63
2018-06-24T05:37:45.077Z,50.63
2018-06-24T05:38:45.008Z,50.63
2018-06-24T05:39:44.994Z,50.63
2018-06-24T05:40:44.973Z,50.63
2018-06-24T05:41:44.967Z,45.00
2018-06-24T05:42:44.962Z,45.00
2018-06-24T05:43:44.961Z,45.00
2018-06-24T05:44:44.924Z,39.38
2018-06-24T05:45:44.914Z,33.75
2018-06-24T05:46:44.955Z,33.75
2018-06-24T05:47:44.901Z,45.00
2018-06-24T05:48:44.929Z,50.63
2018-06-24T05:49:44.865Z,50.63
2018-06-24T05:50:44.857Z,50.63
2018-06-24T05:51:44.842Z,50.63
2018-06-24T05:52:44.832Z,39.38
2018-06-24T05:53:44.851Z,39.38
2018-06-24T05:54:44.817Z,39.38
2018-06-24T05:55:44.797Z,45.00
2018-06-24T05:56:44.787Z,45.00
2018-06-24T05:57:44.785Z,45.00
2018-06-24T05:58:44.897Z,45.00
2018-06-24T05:59:44.747Z,45.00
2018-06-24T06:00:44.746Z,45.00
2018-06-24T06:01:44.716Z,45.00
2018-06-24T06:02:44.711Z,39.38
2018-06-24T06:03:44.694Z,39.38
2018-06-24T06:04:44.692Z,39.38
2018-06-24T06:05:44.669Z,39.38
2018-06-24T06:06:44.663Z,39.38
2018-06-24T06:07:44.656Z,39.38
2018-06-24T06:08:44.645Z,39.38
2018-06-24T06:09:44.632Z,39.38
2018-06-24T06:10:44.748Z,39.38
2018-06-24T06:11:44.663Z,39.38
2018-06-24T06:12:44.581Z,39.38
2018-06-24T06:13:44.579Z,39.38
2018-06-24T06:14:44.574Z,39.38
2018-06-24T06:15:44.559Z,45.00
2018-06-24T06:16:44.851Z,45.00
2018-06-24T06:17:44.533Z,45.00
2018-06-24T06:18:44.525Z,50.63
2018-06-24T06:19:44.514Z,45.00
2018-06-24T06:20:44.499Z,39.38
2018-06-24T06:21:44.522Z,39.38
2018-06-24T06:22:44.465Z,33.75
2018-06-24T06:23:44.459Z,33.75
2018-06-24T06:24:44.459Z,33.75
2018-06-24T06:25:44.462Z,33.75
2018-06-24T06:26:44.427Z,33.75
2018-06-24T06:27:44.412Z,33.75
2018-06-24T06:28:44.432Z,39.38
2018-06-24T06:29:44.395Z,39.38
2018-06-24T06:30:44.395Z,39.38
2018-06-24T06:31:44.363Z,39.38
2018-06-24T06:32:44.359Z,39.38
2018-06-24T06:33:44.341Z,39.38
2018-06-24T06:34:44.333Z,39.38
2018-06-24T06:35:44.343Z,39.38
2018-06-24T06:36:44.334Z,39.38
2018-06-24T06:37:44.283Z,39.38
2018-06-24T06:38:44.281Z,39.38
2018-06-24T06:39:44.266Z,39.38
2018-06-24T06:40:44.393Z,39.38
2018-06-24T06:41:44.238Z,39.38
2018-06-24T06:42:44.231Z,39.38
2018-06-24T06:43:44.219Z,39.38
2018-06-24T06:44:44.206Z,45.00
2018-06-24T06:45:44.313Z,45.00
2018-06-24T06:46:44.214Z,45.00
2018-06-24T06:47:44.179Z,45.00
2018-06-24T06:48:44.149Z,45.00
2018-06-24T06:49:44.147Z,50.63
2018-06-24T06:50:44.140Z,50.63
2018-06-24T06:51:44.273Z,50.63
2018-06-24T06:52:44.104Z,56.25
2018-06-24T06:53:44.092Z,61.88
2018-06-24T06:54:44.091Z,67.50
2018-06-24T06:55:44.062Z,73.13
2018-06-24T06:56:44.062Z,73.13
2018-06-24T06:57:44.072Z,73.13
2018-06-24T06:58:44.032Z,73.13
2018-06-24T06:59:44.014Z,73.13
2018-06-24T07:00:44.015Z,73.13
2018-06-24T07:01:43.997Z,73.13
2018-06-24T07:02:44.070Z,73.13
2018-06-24T07:03:43.974Z,67.50
2018-06-24T07:04:43.963Z,61.88
2018-06-24T07:05:43.965Z,67.50
2018-06-24T07:06:43.937Z,73.13
2018-06-24T07:07:43.930Z,73.13
2018-06-24T07:08:43.948Z,73.13
2018-06-24T07:09:43.909Z,73.13
2018-06-24T07:10:43.884Z,84.38
2018-06-24T07:11:43.882Z,95.63
2018-06-24T07:12:43.861Z,84.38
2018-06-24T07:13:43.890Z,73.13
2018-06-24T07:14:43.842Z,84.38
2018-06-24T07:15:43.825Z,67.50
2018-06-24T07:16:43.825Z,67.50
2018-06-24T07:17:43.813Z,78.75
2018-06-24T07:18:43.826Z,78.75
2018-06-24T07:19:43.794Z,84.38
2018-06-24T07:20:43.778Z,73.13
2018-06-24T07:21:43.763Z,61.88
2018-06-24T07:22:43.763Z,78.75
2018-06-24T07:23:43.741Z,95.63
2018-06-24T07:24:43.780Z,90.00
2018-06-24T07:25:43.720Z,84.38
2018-06-24T07:26:43.703Z,67.50
2018-06-24T07:27:43.709Z,67.50
2018-06-24T07:28:43.675Z,67.50
2018-06-24T07:29:43.671Z,95.63
2018-06-24T07:30:43.687Z,84.38
2018-06-24T07:31:43.647Z,78.75
2018-06-24T07:32:43.637Z,73.13
2018-06-24T07:33:43.799Z,95.63
2018-06-24T07:34:43.650Z,101.25
2018-06-24T07:35:43.607Z,95.63
2018-06-24T07:36:43.581Z,90.00
2018-06-24T07:37:43.577Z,61.88
2018-06-24T07:38:43.565Z,61.88
2018-06-24T07:39:43.593Z,73.13
2018-06-24T07:40:43.578Z,50.63
2018-06-24T07:41:43.534Z,56.25
2018-06-24T07:42:43.526Z,78.75
2018-06-24T07:43:43.506Z,101.25
2018-06-24T07:44:43.504Z,106.88
2018-06-24T07:45:43.507Z,73.13
2018-06-24T07:46:43.481Z,95.63
2018-06-24T07:47:43.689Z,135.00
2018-06-24T07:48:43.444Z,118.13
2018-06-24T07:49:43.439Z,129.38
2018-06-24T07:50:43.465Z,112.50
2018-06-24T07:51:43.419Z,78.75
2018-06-24T07:52:43.433Z,67.50
2018-06-24T07:53:43.391Z,50.63
2018-06-24T07:54:43.384Z,56.25
2018-06-24T07:55:43.407Z,78.75
2018-06-24T07:56:43.353Z,56.25
2018-06-24T07:57:43.354Z,45.00
2018-06-24T07:58:43.331Z,61.88
2018-06-24T07:59:43.329Z,67.50
2018-06-24T08:00:43.358Z,56.25
2018-06-24T08:01:43.312Z,67.50
2018-06-24T08:02:43.295Z,95.63
2018-06-24T08:03:43.275Z,95.63
2018-06-24T08:04:43.276Z,73.13
2018-06-24T08:05:43.261Z,50.63
2018-06-24T08:06:43.259Z,50.63
2018-06-24T08:07:43.243Z,56.25
2018-06-24T08:08:43.224Z,45.00
2018-06-24T08:09:43.236Z,50.63
2018-06-24T08:10:43.193Z,61.88
2018-06-24T08:11:43.696Z,50.63
2018-06-24T08:12:43.205Z,33.75
2018-06-24T08:13:43.164Z,39.38
2018-06-24T08:14:43.173Z,45.00
2018-06-24T08:15:43.143Z,50.63
2018-06-24T08:16:43.149Z,50.63
2018-06-24T08:17:43.155Z,73.13
2018-06-24T08:18:43.122Z,90.00
2018-06-24T08:19:43.107Z,90.00
2018-06-24T08:20:43.103Z,90.00
2018-06-24T08:21:43.075Z,78.75
2018-06-24T08:22:43.123Z,78.75
2018-06-24T08:23:43.058Z,61.88
2018-06-24T08:24:43.060Z,39.38
2018-06-24T08:25:43.035Z,45.00
2018-06-24T08:26:43.028Z,45.00
2018-06-24T08:27:43.047Z,61.88
2018-06-24T08:28:42.995Z,84.38
2018-06-24T08:29:43.035Z,90.00
2018-06-24T08:30:42.989Z,90.00
2018-06-24T08:31:43.401Z,73.13
2018-06-24T08:32:42.956Z,56.25
2018-06-24T08:33:42.996Z,45.00
2018-06-24T08:34:42.937Z,50.63
2018-06-24T08:35:42.951Z,39.38
2018-06-24T08:36:42.910Z,39.38
2018-06-24T08:37:43.605Z,45.00
2018-06-24T08:38:42.878Z,28.13
2018-06-24T08:39:42.879Z,22.50
2018-06-24T08:40:42.897Z,28.13
2018-06-24T08:41:42.856Z,28.13
2018-06-24T08:42:42.838Z,45.00
2018-06-24T08:43:42.835Z,39.38
2018-06-24T08:44:42.853Z,33.75
2018-06-24T08:45:42.820Z,50.63
2018-06-24T08:46:42.799Z,56.25
2018-06-24T08:47:42.975Z,61.88
2018-06-24T08:48:42.956Z,78.75
2018-06-24T08:49:42.771Z,78.75
2018-06-24T08:50:42.917Z,78.75
2018-06-24T08:51:42.740Z,78.75
2018-06-24T08:52:42.762Z,78.75
2018-06-24T08:53:42.713Z,78.75
2018-06-24T08:54:42.701Z,78.75
2018-06-24T08:55:42.697Z,90.00
2018-06-24T08:56:42.680Z,106.88
2018-06-24T08:57:42.700Z,101.25
2018-06-24T08:58:42.660Z,101.25
2018-06-24T08:59:42.673Z,90.00
2018-06-24T09:00:42.675Z,73.13
2018-06-24T09:01:42.612Z,61.88
2018-06-24T09:02:42.612Z,67.50
2018-06-24T09:03:42.604Z,73.13
2018-06-24T09:04:42.582Z,78.75
2018-06-24T09:05:42.603Z,61.88
2018-06-24T09:06:42.559Z,67.50
2018-06-24T09:07:42.544Z,61.88
2018-06-24T09:08:43.117Z,61.88
2018-06-24T09:09:42.941Z,56.25
2018-06-24T09:10:42.539Z,61.88
2018-06-24T09:11:42.654Z,61.88
2018-06-24T09:12:42.497Z,61.88
2018-06-24T09:13:42.477Z,56.25
2018-06-24T09:14:42.510Z,50.63
2018-06-24T09:15:42.576Z,45.00
2018-06-24T09:16:42.454Z,39.38
2018-06-24T09:17:42.435Z,39.38
2018-06-24T09:18:42.418Z,33.75
2018-06-24T09:19:42.406Z,39.38
2018-06-24T09:20:42.404Z,45.00
2018-06-24T09:21:42.406Z,50.63
2018-06-24T09:22:42.378Z,56.25
2018-06-24T09:23:42.350Z,56.25
2018-06-24T09:24:42.348Z,61.88
2018-06-24T09:25:44.600Z,61.88
2018-06-24T09:26:42.352Z,67.50
2018-06-24T09:27:42.475Z,78.75
2018-06-24T09:28:42.308Z,78.75
2018-06-24T09:29:42.285Z,84.38
2018-06-24T09:30:42.347Z,95.63
2018-06-24T09:31:42.267Z,78.75
2018-06-24T09:32:42.262Z,73.13
2018-06-24T09:33:42.245Z,73.13
2018-06-24T09:34:42.231Z,78.75
2018-06-24T09:35:42.233Z,84.38
2018-06-24T09:36:42.197Z,95.63
2018-06-24T09:37:42.645Z,61.88
2018-06-24T09:38:46.062Z,61.88
2018-06-24T09:39:42.831Z,61.88
2018-06-24T09:40:43.620Z,67.50
2018-06-24T09:41:42.739Z,67.50
2018-06-24T09:42:42.622Z,78.75
2018-06-24T09:43:43.207Z,73.13
2018-06-24T09:44:42.858Z,84.38
2018-06-24T09:45:42.792Z,95.63
2018-06-24T09:46:42.805Z,106.88
2018-06-24T09:47:42.696Z,112.50
2018-06-24T09:48:42.737Z,112.50
2018-06-24T09:49:42.853Z,106.88
2018-06-24T09:50:42.860Z,112.50
2018-06-24T09:51:42.593Z,112.50
2018-06-24T09:52:42.832Z,112.50
2018-06-24T09:53:42.580Z,106.88
2018-06-24T09:54:42.705Z,101.25
2018-06-24T09:55:42.992Z,106.88
2018-06-24T09:56:43.107Z,95.63
2018-06-24T09:57:42.126Z,90.00
2018-06-24T09:58:42.748Z,78.75
2018-06-24T09:59:42.508Z,61.88
2018-06-24T10:00:43.138Z,61.88
2018-06-24T10:01:42.382Z,67.50
2018-06-24T10:02:42.588Z,56.25
2018-06-24T10:03:42.139Z,56.25
2018-06-24T10:04:47.097Z,61.88
2018-06-24T10:05:42.574Z,61.88
2018-06-24T10:06:42.874Z,67.50
2018-06-24T10:07:42.274Z,61.88
2018-06-24T10:08:42.613Z,56.25
2018-06-24T10:09:42.563Z,61.88
2018-06-24T10:10:42.540Z,73.13
2018-06-24T10:11:42.713Z,95.63
2018-06-24T10:12:42.466Z,101.25
2018-06-24T10:13:42.273Z,123.75
2018-06-24T10:14:42.411Z,123.75
2018-06-24T10:15:43.142Z,123.75
2018-06-24T10:16:42.049Z,123.75
2018-06-24T10:17:42.913Z,123.75
2018-06-24T10:18:42.214Z,123.75
2018-06-24T10:19:42.769Z,123.75
2018-06-24T10:20:42.371Z,118.13
2018-06-24T10:21:42.365Z,118.13
2018-06-24T10:22:42.385Z,123.75
2018-06-24T10:23:42.455Z,129.38
2018-06-24T10:24:42.666Z,135.00
2018-06-24T10:25:41.613Z,135.00
2018-06-24T10:26:41.598Z,146.25
2018-06-24T10:27:41.610Z,163.13
2018-06-24T10:28:41.595Z,174.38
2018-06-24T10:29:41.594Z,180.00
2018-06-24T10:30:42.532Z,185.63
2018-06-24T10:31:41.559Z,168.75
2018-06-24T10:32:41.545Z,196.88
2018-06-24T10:33:41.555Z,196.88
2018-06-24T10:34:41.559Z,174.38
2018-06-24T10:35:41.522Z,174.38
2018-06-24T10:36:41.510Z,163.13
2018-06-24T10:37:41.494Z,157.50
2018-06-24T10:38:41.479Z,151.88
2018-06-24T10:39:41.469Z,135.00
2018-06-24T10:40:41.594Z,174.38
2018-06-24T10:41:41.536Z,146.25
2018-06-24T10:42:41.433Z,118.13
2018-06-24T10:43:41.420Z,95.63
2018-06-24T10:44:41.427Z,106.88
2018-06-24T10:45:41.403Z,90.00
2018-06-24T10:46:41.424Z,118.13
2018-06-24T10:47:41.426Z,135.00
2018-06-24T10:48:41.366Z,118.13
2018-06-24T10:49:41.354Z,157.50
2018-06-24T10:50:41.338Z,168.75
2018-06-24T10:51:41.314Z,163.13
2018-06-24T10:52:41.466Z,146.25
2018-06-24T10:53:41.304Z,157.50
2018-06-24T10:54:41.292Z,129.38
2018-06-24T10:55:41.281Z,95.63
2018-06-24T10:56:41.275Z,84.38
2018-06-24T10:57:41.254Z,129.38
2018-06-24T10:58:41.257Z,146.25
2018-06-24T10:59:41.289Z,73.13
2018-06-24T11:00:41.234Z,67.50
2018-06-24T11:01:41.220Z,90.00
2018-06-24T11:02:41.261Z,118.13
2018-06-24T11:03:41.198Z,90.00
2018-06-24T11:04:41.187Z,84.38
2018-06-24T11:05:41.178Z,106.88
2018-06-24T11:06:41.168Z,78.75
2018-06-24T11:07:41.157Z,73.13
2018-06-24T11:08:41.150Z,61.88
2018-06-24T11:09:41.148Z,61.88
2018-06-24T11:10:41.120Z,50.63
2018-06-24T11:11:41.104Z,39.38
2018-06-24T11:12:41.092Z,50.63
2018-06-24T11:13:41.073Z,61.88
2018-06-24T11:14:41.075Z,78.75
2018-06-24T11:15:41.085Z,56.25
2018-06-24T11:16:41.051Z,56.25
2018-06-24T11:17:41.036Z,56.25
2018-06-24T11:18:41.023Z,50.63
2018-06-24T11:19:41.020Z,45.00
2018-06-24T11:20:41.009Z,45.00
2018-06-24T11:21:40.993Z,56.25
2018-06-24T11:22:40.972Z,45.00
2018-06-24T11:23:40.964Z,39.38
2018-06-24T11:24:41.699Z,50.63
2018-06-24T11:25:40.951Z,45.00
2018-06-24T11:26:40.937Z,50.63
2018-06-24T11:27:40.923Z,45.00
2018-06-24T11:28:40.913Z,39.38
2018-06-24T11:29:40.897Z,39.38
2018-06-24T11:30:40.898Z,50.63
2018-06-24T11:31:40.876Z,61.88
2018-06-24T11:32:40.865Z,61.88
2018-06-24T11:33:40.848Z,73.13
2018-06-24T11:34:40.843Z,56.25
2018-06-24T11:35:41.186Z,56.25
2018-06-24T11:36:40.822Z,67.50
2018-06-24T11:37:40.812Z,67.50
2018-06-24T11:38:40.791Z,90.00
2018-06-24T11:39:40.806Z,95.63
2018-06-24T11:40:40.767Z,73.13
2018-06-24T11:41:40.822Z,78.75
2018-06-24T11:42:40.763Z,84.38
2018-06-24T11:43:40.747Z,95.63
2018-06-24T11:44:40.730Z,118.13
2018-06-24T11:45:40.714Z,163.13
2018-06-24T11:46:40.706Z,174.38
2018-06-24T11:47:40.734Z,163.13
2018-06-24T11:48:40.679Z,180.00
2018-06-24T11:49:40.689Z,157.50
2018-06-24T11:50:40.668Z,174.38
2018-06-24T11:51:40.667Z,196.88
2018-06-24T11:52:40.662Z,168.75
2018-06-24T11:53:40.680Z,163.13
2018-06-24T11:54:40.616Z,123.75
2018-06-24T11:55:40.608Z,106.88
2018-06-24T11:56:40.617Z,78.75
2018-06-24T11:57:40.606Z,56.25
2018-06-24T11:58:40.585Z,50.63
2018-06-24T11:59:40.602Z,61.88
2018-06-24T12:00:40.866Z,45.00
2018-06-24T12:01:40.548Z,39.38
2018-06-24T12:02:40.580Z,45.00
2018-06-24T12:03:40.550Z,39.38
2018-06-24T12:04:40.514Z,50.63
2018-06-24T12:05:40.498Z,56.25
2018-06-24T12:06:40.498Z,45.00
2018-06-24T12:07:40.476Z,45.00
2018-06-24T12:08:40.511Z,50.63
2018-06-24T12:09:40.518Z,50.63
2018-06-24T12:10:40.495Z,56.25
2018-06-24T12:11:40.436Z,61.88
2018-06-24T12:12:40.436Z,73.13
2018-06-24T12:13:40.548Z,67.50
2018-06-24T12:14:40.404Z,95.63
2018-06-24T12:15:40.397Z,129.38
2018-06-24T12:16:40.380Z,118.13
2018-06-24T12:17:40.374Z,151.88
2018-06-24T12:18:40.378Z,140.63
2018-06-24T12:19:40.421Z,123.75
2018-06-24T12:20:40.334Z,90.00
2018-06-24T12:21:40.327Z,73.13
2018-06-24T12:22:40.317Z,73.13
2018-06-24T12:23:40.308Z,67.50
2018-06-24T12:24:40.302Z,61.88
2018-06-24T12:25:40.426Z,50.63
2018-06-24T12:26:40.267Z,50.63
2018-06-24T12:27:40.262Z,50.63
2018-06-24T12:28:40.258Z,50.63
2018-06-24T12:29:40.233Z,56.25
2018-06-24T12:30:40.291Z,61.88
2018-06-24T12:31:40.252Z,56.25
2018-06-24T12:32:40.206Z,45.00
2018-06-24T12:33:40.195Z,56.25
2018-06-24T12:34:40.186Z,50.63
2018-06-24T12:35:40.217Z,56.25
2018-06-24T12:36:40.160Z,67.50
2018-06-24T12:37:40.153Z,95.63
2018-06-24T12:38:40.147Z,106.88
2018-06-24T12:39:40.175Z,78.75
2018-06-24T12:40:40.164Z,73.13
2018-06-24T12:41:40.106Z,84.38
2018-06-24T12:42:40.101Z,39.38
2018-06-24T12:43:40.088Z,45.00
2018-06-24T12:44:40.074Z,39.38
2018-06-24T12:45:40.129Z,45.00
2018-06-24T12:46:40.055Z,61.88
2018-06-24T12:47:40.031Z,67.50
2018-06-24T12:48:40.726Z,56.25
2018-06-24T12:49:40.025Z,45.00
2018-06-24T12:50:40.058Z,39.38
2018-06-24T12:51:40.128Z,45.00
2018-06-24T12:52:40.020Z,45.00
2018-06-24T12:53:39.967Z,45.00
2018-06-24T12:54:39.972Z,39.38
2018-06-24T12:55:39.954Z,33.75
2018-06-24T12:56:39.937Z,39.38
2018-06-24T12:57:39.946Z,45.00